Terminal Aerodrome Forecast
Issued by NWS Corpus Christi, TX

Home | Current Version | Previous Version | Text Only | Print | Product List | Glossary On
Versions: 1 2 3 4 5 6 7 8 9 10 11 12 13 14 15 16 17 18 19 20 21
000
FTUS44 KCRP 042333
TAFCRP
TAF
KCRP 042333Z 0500/0524 03015G20KT 6SM -SHRA BR OVC008
      TEMPO 0506/0510 4SM TSRA BR OVC008CB
     FM051000 36015KT P6SM -RA OVC009
     FM051600 32016KT P6SM OVC015
     FM052100 30014KT P6SM OVC030=

USA.gov is the U.S. government's official web portal to all federal, state and local government web resources and services.